sensor_id;sensor_type;location;lat;lon;timestamp;P1;durP1;ratioP1;P2;durP2;ratioP2
25381;SDS011;16307;42.896;20.874;2022-09-29T00:02:43;15.32;;;3.35;;
25381;SDS011;16307;42.896;20.874;2022-09-29T00:05:29;14.27;;;3.28;;
25381;SDS011;16307;42.896;20.874;2022-09-29T00:08:16;16.88;;;3.83;;
25381;SDS011;16307;42.896;20.874;2022-09-29T00:11:07;25.90;;;3.90;;
25381;SDS011;16307;42.896;20.874;2022-09-29T00:13:53;16.08;;;3.28;;
25381;SDS011;16307;42.896;20.874;2022-09-29T00:16:40;16.23;;;4.20;;
25381;SDS011;16307;42.896;20.874;2022-09-29T00:19:26;6.70;;;2.78;;
25381;SDS011;16307;42.896;20.874;2022-09-29T00:22:13;14.50;;;3.00;;
25381;SDS011;16307;42.896;20.874;2022-09-29T00:24:59;13.13;;;2.92;;
25381;SDS011;16307;42.896;20.874;2022-09-29T00:27:45;15.10;;;3.25;;
25381;SDS011;16307;42.896;20.874;2022-09-29T00:30:31;15.77;;;2.97;;
25381;SDS011;16307;42.896;20.874;2022-09-29T00:33:17;10.10;;;2.42;;
25381;SDS011;16307;42.896;20.874;2022-09-29T00:36:04;11.95;;;2.90;;
25381;SDS011;16307;42.896;20.874;2022-09-29T00:38:51;10.20;;;3.00;;
25381;SDS011;16307;42.896;20.874;2022-09-29T00:41:39;9.38;;;2.72;;
25381;SDS011;16307;42.896;20.874;2022-09-29T00:47:37;14.30;;;3.28;;
25381;SDS011;16307;42.896;20.874;2022-09-29T00:50:31;10.13;;;2.92;;
25381;SDS011;16307;42.896;20.874;2022-09-29T00:53:20;15.82;;;3.38;;
25381;SDS011;16307;42.896;20.874;2022-09-29T00:56:09;12.82;;;2.88;;
25381;SDS011;16307;42.896;20.874;2022-09-29T00:58:58;12.45;;;2.90;;
25381;SDS011;16307;42.896;20.874;2022-09-29T01:01:47;9.52;;;2.75;;
25381;SDS011;16307;42.896;20.874;2022-09-29T01:04:33;12.45;;;3.20;;
25381;SDS011;16307;42.896;20.874;2022-09-29T01:07:22;16.98;;;3.28;;
25381;SDS011;16307;42.896;20.874;2022-09-29T01:10:10;13.63;;;3.42;;
25381;SDS011;16307;42.896;20.874;2022-09-29T01:12:58;13.80;;;3.75;;
25381;SDS011;16307;42.896;20.874;2022-09-29T01:15:45;15.35;;;3.35;;
25381;SDS011;16307;42.896;20.874;2022-09-29T01:18:31;14.25;;;3.25;;
25381;SDS011;16307;42.896;20.874;2022-09-29T01:24:24;14.60;;;3.90;;
25381;SDS011;16307;42.896;20.874;2022-09-29T01:27:14;17.75;;;3.70;;
25381;SDS011;16307;42.896;20.874;2022-09-29T01:33:07;13.82;;;3.33;;
25381;SDS011;16307;42.896;20.874;2022-09-29T01:39:30;12.25;;;3.70;;
25381;SDS011;16307;42.896;20.874;2022-09-29T01:45:14;12.73;;;3.35;;
25381;SDS011;16307;42.896;20.874;2022-09-29T01:48:07;13.10;;;4.15;;
25381;SDS011;16307;42.896;20.874;2022-09-29T01:50:56;11.43;;;3.72;;
25381;SDS011;16307;42.896;20.874;2022-09-29T01:53:48;13.63;;;3.78;;
25381;SDS011;16307;42.896;20.874;2022-09-29T01:56:39;18.02;;;4.25;;
25381;SDS011;16307;42.896;20.874;2022-09-29T01:59:37;14.35;;;4.15;;
25381;SDS011;16307;42.896;20.874;2022-09-29T02:08:53;11.27;;;3.33;;
25381;SDS011;16307;42.896;20.874;2022-09-29T02:11:40;12.38;;;3.70;;
25381;SDS011;16307;42.896;20.874;2022-09-29T02:14:28;10.73;;;3.65;;
25381;SDS011;16307;42.896;20.874;2022-09-29T02:17:20;10.98;;;3.58;;
25381;SDS011;16307;42.896;20.874;2022-09-29T02:20:17;17.58;;;3.90;;
25381;SDS011;16307;42.896;20.874;2022-09-29T02:23:04;15.43;;;4.15;;
25381;SDS011;16307;42.896;20.874;2022-09-29T02:25:50;13.07;;;4.20;;
25381;SDS011;16307;42.896;20.874;2022-09-29T02:28:37;16.52;;;3.65;;
25381;SDS011;16307;42.896;20.874;2022-09-29T02:31:23;12.50;;;3.78;;
25381;SDS011;16307;42.896;20.874;2022-09-29T02:34:10;14.32;;;3.92;;
25381;SDS011;16307;42.896;20.874;2022-09-29T02:51:43;11.38;;;2.85;;
25381;SDS011;16307;42.896;20.874;2022-09-29T02:57:54;12.32;;;2.50;;
25381;SDS011;16307;42.896;20.874;2022-09-29T03:00:44;10.23;;;2.78;;
25381;SDS011;16307;42.896;20.874;2022-09-29T03:03:30;15.70;;;3.05;;
25381;SDS011;16307;42.896;20.874;2022-09-29T03:06:17;12.05;;;3.08;;
25381;SDS011;16307;42.896;20.874;2022-09-29T03:09:04;13.88;;;3.10;;
25381;SDS011;16307;42.896;20.874;2022-09-29T03:11:49;8.52;;;2.95;;
25381;SDS011;16307;42.896;20.874;2022-09-29T03:14:35;8.38;;;2.90;;
25381;SDS011;16307;42.896;20.874;2022-09-29T03:17:21;13.13;;;2.95;;
25381;SDS011;16307;42.896;20.874;2022-09-29T03:20:07;11.82;;;3.00;;
25381;SDS011;16307;42.896;20.874;2022-09-29T03:22:56;10.18;;;3.05;;
25381;SDS011;16307;42.896;20.874;2022-09-29T03:25:42;9.73;;;3.28;;
25381;SDS011;16307;42.896;20.874;2022-09-29T03:28:29;7.32;;;2.90;;
25381;SDS011;16307;42.896;20.874;2022-09-29T03:31:15;14.75;;;3.60;;
25381;SDS011;16307;42.896;20.874;2022-09-29T03:34:01;8.88;;;3.38;;
25381;SDS011;16307;42.896;20.874;2022-09-29T03:36:47;11.93;;;3.70;;
25381;SDS011;16307;42.896;20.874;2022-09-29T03:39:33;7.70;;;3.33;;
25381;SDS011;16307;42.896;20.874;2022-09-29T03:42:20;12.50;;;3.95;;
25381;SDS011;16307;42.896;20.874;2022-09-29T03:45:08;16.02;;;3.70;;
25381;SDS011;16307;42.896;20.874;2022-09-29T03:47:55;13.13;;;4.13;;
25381;SDS011;16307;42.896;20.874;2022-09-29T03:50:40;15.98;;;4.00;;
25381;SDS011;16307;42.896;20.874;2022-09-29T03:53:26;11.30;;;3.90;;
25381;SDS011;16307;42.896;20.874;2022-09-29T03:56:12;10.55;;;4.25;;
25381;SDS011;16307;42.896;20.874;2022-09-29T03:58:59;12.60;;;4.38;;
25381;SDS011;16307;42.896;20.874;2022-09-29T04:01:45;11.45;;;5.03;;
25381;SDS011;16307;42.896;20.874;2022-09-29T04:04:31;14.48;;;6.78;;
25381;SDS011;16307;42.896;20.874;2022-09-29T04:07:17;15.73;;;6.00;;
25381;SDS011;16307;42.896;20.874;2022-09-29T04:10:03;15.35;;;5.88;;
25381;SDS011;16307;42.896;20.874;2022-09-29T04:12:49;17.25;;;5.40;;
25381;SDS011;16307;42.896;20.874;2022-09-29T04:15:35;15.32;;;4.45;;
25381;SDS011;16307;42.896;20.874;2022-09-29T04:18:21;12.02;;;4.72;;
25381;SDS011;16307;42.896;20.874;2022-09-29T04:21:08;15.93;;;5.70;;
25381;SDS011;16307;42.896;20.874;2022-09-29T04:23:55;17.27;;;5.93;;
25381;SDS011;16307;42.896;20.874;2022-09-29T04:26:40;12.23;;;4.57;;
25381;SDS011;16307;42.896;20.874;2022-09-29T04:29:26;11.30;;;4.57;;
25381;SDS011;16307;42.896;20.874;2022-09-29T04:32:12;14.23;;;4.55;;
25381;SDS011;16307;42.896;20.874;2022-09-29T04:34:59;14.73;;;4.32;;
25381;SDS011;16307;42.896;20.874;2022-09-29T04:37:44;14.48;;;4.50;;
25381;SDS011;16307;42.896;20.874;2022-09-29T04:40:30;14.05;;;4.45;;
25381;SDS011;16307;42.896;20.874;2022-09-29T04:43:17;12.25;;;5.03;;
25381;SDS011;16307;42.896;20.874;2022-09-29T04:46:04;20.60;;;5.50;;
25381;SDS011;16307;42.896;20.874;2022-09-29T04:48:52;19.60;;;6.47;;
25381;SDS011;16307;42.896;20.874;2022-09-29T04:51:37;17.27;;;5.30;;
25381;SDS011;16307;42.896;20.874;2022-09-29T04:54:23;17.63;;;5.32;;
25381;SDS011;16307;42.896;20.874;2022-09-29T04:57:11;23.50;;;6.40;;
25381;SDS011;16307;42.896;20.874;2022-09-29T04:59:57;24.80;;;6.53;;
25381;SDS011;16307;42.896;20.874;2022-09-29T05:02:43;20.13;;;5.30;;
25381;SDS011;16307;42.896;20.874;2022-09-29T05:05:34;22.67;;;6.07;;
25381;SDS011;16307;42.896;20.874;2022-09-29T05:08:20;30.75;;;9.02;;
25381;SDS011;16307;42.896;20.874;2022-09-29T05:11:06;19.00;;;6.50;;
25381;SDS011;16307;42.896;20.874;2022-09-29T05:13:53;20.42;;;6.72;;
25381;SDS011;16307;42.896;20.874;2022-09-29T05:16:39;15.63;;;6.45;;
25381;SDS011;16307;42.896;20.874;2022-09-29T05:19:26;15.07;;;5.38;;
25381;SDS011;16307;42.896;20.874;2022-09-29T05:22:11;18.42;;;5.70;;
25381;SDS011;16307;42.896;20.874;2022-09-29T05:24:58;20.80;;;6.72;;
25381;SDS011;16307;42.896;20.874;2022-09-29T05:27:43;20.52;;;7.20;;
25381;SDS011;16307;42.896;20.874;2022-09-29T05:30:29;24.63;;;6.85;;
25381;SDS011;16307;42.896;20.874;2022-09-29T05:33:15;22.25;;;8.27;;
25381;SDS011;16307;42.896;20.874;2022-09-29T05:36:07;22.63;;;7.55;;
25381;SDS011;16307;42.896;20.874;2022-09-29T05:38:54;22.23;;;6.80;;
25381;SDS011;16307;42.896;20.874;2022-09-29T05:51:07;22.40;;;8.88;;
25381;SDS011;16307;42.896;20.874;2022-09-29T05:53:55;16.30;;;6.60;;
25381;SDS011;16307;42.896;20.874;2022-09-29T05:56:41;19.77;;;9.35;;
25381;SDS011;16307;42.896;20.874;2022-09-29T05:59:30;20.48;;;7.55;;
25381;SDS011;16307;42.896;20.874;2022-09-29T06:02:15;19.85;;;6.85;;
25381;SDS011;16307;42.896;20.874;2022-09-29T06:05:03;21.48;;;7.63;;
25381;SDS011;16307;42.896;20.874;2022-09-29T06:07:49;17.23;;;7.95;;
25381;SDS011;16307;42.896;20.874;2022-09-29T06:10:36;22.42;;;8.00;;
25381;SDS011;16307;42.896;20.874;2022-09-29T06:13:22;15.77;;;7.22;;
25381;SDS011;16307;42.896;20.874;2022-09-29T06:16:08;28.58;;;8.13;;
25381;SDS011;16307;42.896;20.874;2022-09-29T06:18:55;18.15;;;7.45;;
25381;SDS011;16307;42.896;20.874;2022-09-29T06:21:41;20.30;;;7.88;;
25381;SDS011;16307;42.896;20.874;2022-09-29T06:24:27;27.90;;;11.57;;
25381;SDS011;16307;42.896;20.874;2022-09-29T06:27:13;31.20;;;12.27;;
25381;SDS011;16307;42.896;20.874;2022-09-29T06:30:00;21.20;;;7.72;;
25381;SDS011;16307;42.896;20.874;2022-09-29T06:32:46;16.02;;;6.93;;
25381;SDS011;16307;42.896;20.874;2022-09-29T06:35:32;15.32;;;7.22;;
25381;SDS011;16307;42.896;20.874;2022-09-29T06:38:37;16.02;;;5.95;;
25381;SDS011;16307;42.896;20.874;2022-09-29T06:41:23;25.08;;;9.65;;
25381;SDS011;16307;42.896;20.874;2022-09-29T06:44:09;24.33;;;9.57;;
25381;SDS011;16307;42.896;20.874;2022-09-29T06:46:56;30.92;;;13.13;;
25381;SDS011;16307;42.896;20.874;2022-09-29T06:49:43;25.35;;;10.13;;
25381;SDS011;16307;42.896;20.874;2022-09-29T06:52:49;19.40;;;10.10;;
25381;SDS011;16307;42.896;20.874;2022-09-29T06:55:54;21.45;;;9.70;;
25381;SDS011;16307;42.896;20.874;2022-09-29T06:58:45;22.30;;;8.65;;
25381;SDS011;16307;42.896;20.874;2022-09-29T07:01:32;29.55;;;11.20;;
25381;SDS011;16307;42.896;20.874;2022-09-29T07:04:19;23.50;;;10.57;;
25381;SDS011;16307;42.896;20.874;2022-09-29T07:07:06;32.22;;;10.48;;
25381;SDS011;16307;42.896;20.874;2022-09-29T07:09:52;30.48;;;14.82;;
25381;SDS011;16307;42.896;20.874;2022-09-29T07:12:37;37.17;;;24.50;;
25381;SDS011;16307;42.896;20.874;2022-09-29T07:15:23;45.00;;;24.17;;
25381;SDS011;16307;42.896;20.874;2022-09-29T07:18:16;33.65;;;19.33;;
25381;SDS011;16307;42.896;20.874;2022-09-29T07:21:06;28.50;;;15.52;;
25381;SDS011;16307;42.896;20.874;2022-09-29T07:23:54;28.73;;;14.63;;
25381;SDS011;16307;42.896;20.874;2022-09-29T07:26:46;33.38;;;15.30;;
25381;SDS011;16307;42.896;20.874;2022-09-29T07:29:32;26.00;;;11.80;;
25381;SDS011;16307;42.896;20.874;2022-09-29T07:32:19;30.30;;;10.75;;
25381;SDS011;16307;42.896;20.874;2022-09-29T07:35:12;28.55;;;11.80;;
25381;SDS011;16307;42.896;20.874;2022-09-29T07:37:58;33.00;;;12.23;;
25381;SDS011;16307;42.896;20.874;2022-09-29T07:40:44;17.58;;;8.35;;
25381;SDS011;16307;42.896;20.874;2022-09-29T07:43:31;24.80;;;7.28;;
25381;SDS011;16307;42.896;20.874;2022-09-29T07:46:17;20.48;;;6.97;;
25381;SDS011;16307;42.896;20.874;2022-09-29T07:49:02;16.75;;;7.47;;
25381;SDS011;16307;42.896;20.874;2022-09-29T07:51:48;17.48;;;6.88;;
25381;SDS011;16307;42.896;20.874;2022-09-29T07:54:34;13.13;;;6.70;;
25381;SDS011;16307;42.896;20.874;2022-09-29T07:57:20;16.77;;;6.78;;
25381;SDS011;16307;42.896;20.874;2022-09-29T08:00:07;17.00;;;6.18;;
25381;SDS011;16307;42.896;20.874;2022-09-29T08:03:02;18.63;;;7.35;;
25381;SDS011;16307;42.896;20.874;2022-09-29T08:05:49;19.08;;;5.93;;
25381;SDS011;16307;42.896;20.874;2022-09-29T08:08:40;15.13;;;5.53;;
25381;SDS011;16307;42.896;20.874;2022-09-29T08:11:39;15.32;;;5.00;;
25381;SDS011;16307;42.896;20.874;2022-09-29T08:14:26;15.00;;;5.25;;
25381;SDS011;16307;42.896;20.874;2022-09-29T08:17:12;17.55;;;4.88;;
25381;SDS011;16307;42.896;20.874;2022-09-29T08:19:58;15.90;;;5.13;;
25381;SDS011;16307;42.896;20.874;2022-09-29T08:22:45;11.95;;;5.32;;
25381;SDS011;16307;42.896;20.874;2022-09-29T08:25:31;18.23;;;5.80;;
25381;SDS011;16307;42.896;20.874;2022-09-29T08:28:18;23.23;;;9.25;;
25381;SDS011;16307;42.896;20.874;2022-09-29T08:31:16;24.67;;;8.98;;
25381;SDS011;16307;42.896;20.874;2022-09-29T08:34:07;21.60;;;7.27;;
25381;SDS011;16307;42.896;20.874;2022-09-29T08:36:54;23.10;;;6.75;;
25381;SDS011;16307;42.896;20.874;2022-09-29T08:39:40;17.10;;;6.18;;
25381;SDS011;16307;42.896;20.874;2022-09-29T08:45:42;12.68;;;4.68;;
25381;SDS011;16307;42.896;20.874;2022-09-29T08:48:45;14.88;;;4.93;;
25381;SDS011;16307;42.896;20.874;2022-09-29T08:51:44;16.52;;;5.72;;
25381;SDS011;16307;42.896;20.874;2022-09-29T08:54:34;13.68;;;4.97;;
25381;SDS011;16307;42.896;20.874;2022-09-29T08:57:25;11.90;;;4.05;;
25381;SDS011;16307;42.896;20.874;2022-09-29T09:00:12;11.70;;;4.50;;
25381;SDS011;16307;42.896;20.874;2022-09-29T09:08:52;16.77;;;3.90;;
25381;SDS011;16307;42.896;20.874;2022-09-29T09:12:06;15.13;;;3.65;;
25381;SDS011;16307;42.896;20.874;2022-09-29T09:18:02;15.90;;;4.23;;
25381;SDS011;16307;42.896;20.874;2022-09-29T09:21:06;13.40;;;4.07;;
25381;SDS011;16307;42.896;20.874;2022-09-29T09:23:56;14.93;;;4.22;;
25381;SDS011;16307;42.896;20.874;2022-09-29T09:26:47;12.82;;;4.70;;
25381;SDS011;16307;42.896;20.874;2022-09-29T09:29:38;17.63;;;4.80;;
25381;SDS011;16307;42.896;20.874;2022-09-29T09:32:27;17.10;;;7.47;;
25381;SDS011;16307;42.896;20.874;2022-09-29T09:35:20;22.50;;;7.38;;
25381;SDS011;16307;42.896;20.874;2022-09-29T09:38:11;23.58;;;7.45;;
25381;SDS011;16307;42.896;20.874;2022-09-29T09:41:00;21.17;;;5.80;;
25381;SDS011;16307;42.896;20.874;2022-09-29T09:43:51;16.92;;;4.65;;
25381;SDS011;16307;42.896;20.874;2022-09-29T09:46:44;18.42;;;5.22;;
25381;SDS011;16307;42.896;20.874;2022-09-29T09:49:35;14.38;;;4.50;;
25381;SDS011;16307;42.896;20.874;2022-09-29T09:52:28;18.75;;;4.82;;
25381;SDS011;16307;42.896;20.874;2022-09-29T09:55:22;19.30;;;4.55;;
25381;SDS011;16307;42.896;20.874;2022-09-29T10:01:29;13.85;;;4.65;;
25381;SDS011;16307;42.896;20.874;2022-09-29T10:04:15;10.02;;;5.03;;
25381;SDS011;16307;42.896;20.874;2022-09-29T10:07:00;14.70;;;4.20;;
25381;SDS011;16307;42.896;20.874;2022-09-29T10:09:46;12.57;;;4.95;;
25381;SDS011;16307;42.896;20.874;2022-09-29T10:12:33;12.52;;;4.78;;
25381;SDS011;16307;42.896;20.874;2022-09-29T10:15:24;11.45;;;6.65;;
25381;SDS011;16307;42.896;20.874;2022-09-29T10:18:20;13.68;;;4.95;;
25381;SDS011;16307;42.896;20.874;2022-09-29T10:24:27;28.67;;;8.32;;
25381;SDS011;16307;42.896;20.874;2022-09-29T10:27:18;19.00;;;7.28;;
25381;SDS011;16307;42.896;20.874;2022-09-29T10:30:23;26.65;;;7.78;;
25381;SDS011;16307;42.896;20.874;2022-09-29T10:33:17;11.35;;;5.10;;
25381;SDS011;16307;42.896;20.874;2022-09-29T10:36:08;18.00;;;7.45;;
25381;SDS011;16307;42.896;20.874;2022-09-29T10:38:55;14.05;;;6.03;;
25381;SDS011;16307;42.896;20.874;2022-09-29T10:41:48;17.92;;;7.95;;
25381;SDS011;16307;42.896;20.874;2022-09-29T10:44:38;19.45;;;6.25;;
25381;SDS011;16307;42.896;20.874;2022-09-29T10:47:24;14.75;;;5.38;;
25381;SDS011;16307;42.896;20.874;2022-09-29T10:50:19;14.02;;;4.40;;
25381;SDS011;16307;42.896;20.874;2022-09-29T10:53:18;13.10;;;2.55;;
25381;SDS011;16307;42.896;20.874;2022-09-29T10:56:19;7.97;;;2.20;;
25381;SDS011;16307;42.896;20.874;2022-09-29T10:59:09;8.73;;;2.10;;
25381;SDS011;16307;42.896;20.874;2022-09-29T11:01:57;6.75;;;2.30;;
25381;SDS011;16307;42.896;20.874;2022-09-29T11:04:44;12.55;;;4.85;;
25381;SDS011;16307;42.896;20.874;2022-09-29T11:07:31;11.88;;;4.07;;
25381;SDS011;16307;42.896;20.874;2022-09-29T11:10:32;9.13;;;4.63;;
25381;SDS011;16307;42.896;20.874;2022-09-29T11:16:30;14.20;;;5.15;;
25381;SDS011;16307;42.896;20.874;2022-09-29T11:19:21;12.93;;;4.43;;
25381;SDS011;16307;42.896;20.874;2022-09-29T11:31:35;8.85;;;3.70;;
25381;SDS011;16307;42.896;20.874;2022-09-29T11:53:18;15.57;;;2.80;;
25381;SDS011;16307;42.896;20.874;2022-09-29T11:55:59;13.13;;;3.40;;
25381;SDS011;16307;42.896;20.874;2022-09-29T12:18:34;11.55;;;3.72;;
25381;SDS011;16307;42.896;20.874;2022-09-29T12:21:29;8.63;;;2.70;;
25381;SDS011;16307;42.896;20.874;2022-09-29T12:24:34;11.13;;;2.72;;
25381;SDS011;16307;42.896;20.874;2022-09-29T12:27:31;15.05;;;4.35;;
25381;SDS011;16307;42.896;20.874;2022-09-29T12:30:21;11.25;;;4.50;;
25381;SDS011;16307;42.896;20.874;2022-09-29T12:48:34;15.25;;;4.32;;
25381;SDS011;16307;42.896;20.874;2022-09-29T12:51:29;11.20;;;3.55;;
25381;SDS011;16307;42.896;20.874;2022-09-29T12:57:31;12.23;;;3.70;;
25381;SDS011;16307;42.896;20.874;2022-09-29T13:00:23;10.93;;;4.13;;
25381;SDS011;16307;42.896;20.874;2022-09-29T13:03:21;11.93;;;3.78;;
25381;SDS011;16307;42.896;20.874;2022-09-29T13:18:27;6.68;;;2.30;;
25381;SDS011;16307;42.896;20.874;2022-09-29T13:25:20;7.38;;;3.25;;
25381;SDS011;16307;42.896;20.874;2022-09-29T13:28:34;8.18;;;3.13;;
25381;SDS011;16307;42.896;20.874;2022-09-29T13:31:26;8.50;;;3.30;;
25381;SDS011;16307;42.896;20.874;2022-09-29T13:34:21;12.40;;;4.40;;
25381;SDS011;16307;42.896;20.874;2022-09-29T13:37:18;5.90;;;3.10;;
25381;SDS011;16307;42.896;20.874;2022-09-29T13:40:06;12.07;;;5.43;;
25381;SDS011;16307;42.896;20.874;2022-09-29T13:42:59;11.90;;;5.63;;
25381;SDS011;16307;42.896;20.874;2022-09-29T13:45:49;19.30;;;6.75;;
25381;SDS011;16307;42.896;20.874;2022-09-29T13:48:36;14.00;;;6.15;;
25381;SDS011;16307;42.896;20.874;2022-09-29T13:51:25;15.00;;;5.60;;
25381;SDS011;16307;42.896;20.874;2022-09-29T13:54:32;11.15;;;4.63;;
25381;SDS011;16307;42.896;20.874;2022-09-29T13:57:21;16.55;;;7.63;;
25381;SDS011;16307;42.896;20.874;2022-09-29T14:00:16;13.70;;;7.38;;
25381;SDS011;16307;42.896;20.874;2022-09-29T14:03:04;12.43;;;5.55;;
25381;SDS011;16307;42.896;20.874;2022-09-29T14:05:53;12.70;;;5.07;;
25381;SDS011;16307;42.896;20.874;2022-09-29T14:09:19;11.32;;;6.35;;
25381;SDS011;16307;42.896;20.874;2022-09-29T14:12:08;14.68;;;7.35;;
25381;SDS011;16307;42.896;20.874;2022-09-29T14:15:02;11.80;;;5.78;;
25381;SDS011;16307;42.896;20.874;2022-09-29T14:17:56;14.65;;;7.68;;
25381;SDS011;16307;42.896;20.874;2022-09-29T14:21:00;16.83;;;7.22;;
25381;SDS011;16307;42.896;20.874;2022-09-29T14:23:49;8.60;;;4.28;;
25381;SDS011;16307;42.896;20.874;2022-09-29T14:29:31;12.85;;;5.28;;
25381;SDS011;16307;42.896;20.874;2022-09-29T14:32:20;8.43;;;3.33;;
25381;SDS011;16307;42.896;20.874;2022-09-29T14:59:38;11.80;;;3.67;;
25381;SDS011;16307;42.896;20.874;2022-09-29T15:02:48;9.05;;;4.13;;
25381;SDS011;16307;42.896;20.874;2022-09-29T15:06:03;7.07;;;2.88;;
25381;SDS011;16307;42.896;20.874;2022-09-29T15:09:03;8.82;;;3.42;;
25381;SDS011;16307;42.896;20.874;2022-09-29T15:14:49;10.27;;;3.20;;
25381;SDS011;16307;42.896;20.874;2022-09-29T15:26:36;10.35;;;2.40;;
25381;SDS011;16307;42.896;20.874;2022-09-29T15:29:23;10.93;;;3.08;;
25381;SDS011;16307;42.896;20.874;2022-09-29T15:35:19;8.45;;;4.13;;
25381;SDS011;16307;42.896;20.874;2022-09-29T15:40:56;10.35;;;4.35;;
25381;SDS011;16307;42.896;20.874;2022-09-29T15:43:53;13.50;;;4.95;;
25381;SDS011;16307;42.896;20.874;2022-09-29T15:46:47;18.27;;;8.98;;
25381;SDS011;16307;42.896;20.874;2022-09-29T15:49:37;22.75;;;9.35;;
25381;SDS011;16307;42.896;20.874;2022-09-29T15:52:38;23.90;;;8.60;;
25381;SDS011;16307;42.896;20.874;2022-09-29T15:55:25;17.08;;;6.95;;
25381;SDS011;16307;42.896;20.874;2022-09-29T15:58:33;19.88;;;8.52;;
25381;SDS011;16307;42.896;20.874;2022-09-29T16:01:21;23.83;;;9.32;;
25381;SDS011;16307;42.896;20.874;2022-09-29T16:04:08;19.38;;;9.45;;
25381;SDS011;16307;42.896;20.874;2022-09-29T16:06:54;20.48;;;10.68;;
25381;SDS011;16307;42.896;20.874;2022-09-29T16:09:40;26.27;;;9.90;;
25381;SDS011;16307;42.896;20.874;2022-09-29T16:12:26;26.42;;;11.50;;
25381;SDS011;16307;42.896;20.874;2022-09-29T16:15:23;20.83;;;9.05;;
25381;SDS011;16307;42.896;20.874;2022-09-29T16:19:01;18.00;;;7.93;;
25381;SDS011;16307;42.896;20.874;2022-09-29T16:21:31;17.15;;;7.70;;
25381;SDS011;16307;42.896;20.874;2022-09-29T16:24:22;10.00;;;6.13;;
25381;SDS011;16307;42.896;20.874;2022-09-29T16:27:28;15.50;;;6.50;;
25381;SDS011;16307;42.896;20.874;2022-09-29T16:30:42;16.05;;;6.40;;
25381;SDS011;16307;42.896;20.874;2022-09-29T16:33:46;13.98;;;6.47;;
25381;SDS011;16307;42.896;20.874;2022-09-29T16:36:39;11.98;;;5.50;;
25381;SDS011;16307;42.896;20.874;2022-09-29T16:39:26;16.02;;;5.68;;
25381;SDS011;16307;42.896;20.874;2022-09-29T16:42:19;12.82;;;6.28;;
25381;SDS011;16307;42.896;20.874;2022-09-29T16:45:12;14.43;;;6.68;;
25381;SDS011;16307;42.896;20.874;2022-09-29T16:47:59;13.98;;;7.30;;
25381;SDS011;16307;42.896;20.874;2022-09-29T16:50:46;19.27;;;7.25;;
25381;SDS011;16307;42.896;20.874;2022-09-29T16:53:33;17.15;;;8.23;;
25381;SDS011;16307;42.896;20.874;2022-09-29T16:59:16;16.52;;;6.55;;
25381;SDS011;16307;42.896;20.874;2022-09-29T17:02:07;19.13;;;7.35;;
25381;SDS011;16307;42.896;20.874;2022-09-29T17:04:54;21.55;;;7.40;;
25381;SDS011;16307;42.896;20.874;2022-09-29T17:07:40;23.05;;;8.20;;
25381;SDS011;16307;42.896;20.874;2022-09-29T17:10:26;14.15;;;6.95;;
25381;SDS011;16307;42.896;20.874;2022-09-29T17:13:13;15.82;;;7.60;;
25381;SDS011;16307;42.896;20.874;2022-09-29T17:16:00;17.60;;;8.43;;
25381;SDS011;16307;42.896;20.874;2022-09-29T17:18:48;19.55;;;9.20;;
25381;SDS011;16307;42.896;20.874;2022-09-29T17:21:35;19.88;;;9.80;;
25381;SDS011;16307;42.896;20.874;2022-09-29T17:24:22;22.48;;;9.90;;
25381;SDS011;16307;42.896;20.874;2022-09-29T17:27:08;20.58;;;8.43;;
25381;SDS011;16307;42.896;20.874;2022-09-29T17:30:14;16.75;;;7.55;;
25381;SDS011;16307;42.896;20.874;2022-09-29T17:33:05;18.55;;;6.80;;
25381;SDS011;16307;42.896;20.874;2022-09-29T17:35:54;15.45;;;7.05;;
25381;SDS011;16307;42.896;20.874;2022-09-29T17:38:40;15.52;;;7.97;;
25381;SDS011;16307;42.896;20.874;2022-09-29T17:41:27;18.30;;;7.57;;
25381;SDS011;16307;42.896;20.874;2022-09-29T17:44:12;19.25;;;9.23;;
25381;SDS011;16307;42.896;20.874;2022-09-29T17:46:59;21.70;;;8.43;;
25381;SDS011;16307;42.896;20.874;2022-09-29T17:50:15;20.35;;;9.10;;
25381;SDS011;16307;42.896;20.874;2022-09-29T17:53:03;17.58;;;8.57;;
25381;SDS011;16307;42.896;20.874;2022-09-29T17:55:50;16.20;;;7.80;;
25381;SDS011;16307;42.896;20.874;2022-09-29T17:58:39;15.57;;;7.68;;
25381;SDS011;16307;42.896;20.874;2022-09-29T18:01:25;14.48;;;7.35;;
25381;SDS011;16307;42.896;20.874;2022-09-29T18:04:11;13.73;;;6.93;;
25381;SDS011;16307;42.896;20.874;2022-09-29T18:06:57;16.05;;;6.03;;
25381;SDS011;16307;42.896;20.874;2022-09-29T18:09:43;12.82;;;6.63;;
25381;SDS011;16307;42.896;20.874;2022-09-29T18:12:29;12.70;;;5.72;;
25381;SDS011;16307;42.896;20.874;2022-09-29T18:15:15;16.75;;;5.97;;
25381;SDS011;16307;42.896;20.874;2022-09-29T18:18:03;15.90;;;5.80;;
25381;SDS011;16307;42.896;20.874;2022-09-29T18:20:50;19.88;;;6.05;;
25381;SDS011;16307;42.896;20.874;2022-09-29T18:23:36;20.98;;;8.88;;
25381;SDS011;16307;42.896;20.874;2022-09-29T18:26:22;19.13;;;7.65;;
25381;SDS011;16307;42.896;20.874;2022-09-29T18:29:17;19.63;;;9.10;;
25381;SDS011;16307;42.896;20.874;2022-09-29T18:32:04;21.90;;;8.63;;
25381;SDS011;16307;42.896;20.874;2022-09-29T18:34:50;14.80;;;7.10;;
25381;SDS011;16307;42.896;20.874;2022-09-29T18:37:36;14.55;;;6.10;;
25381;SDS011;16307;42.896;20.874;2022-09-29T18:40:22;15.50;;;7.25;;
25381;SDS011;16307;42.896;20.874;2022-09-29T18:43:12;17.77;;;6.03;;
25381;SDS011;16307;42.896;20.874;2022-09-29T18:45:58;11.27;;;5.25;;
25381;SDS011;16307;42.896;20.874;2022-09-29T18:48:44;22.65;;;9.45;;
25381;SDS011;16307;42.896;20.874;2022-09-29T18:51:30;24.92;;;7.28;;
25381;SDS011;16307;42.896;20.874;2022-09-29T18:54:17;13.68;;;7.15;;
25381;SDS011;16307;42.896;20.874;2022-09-29T18:57:03;16.48;;;7.20;;
25381;SDS011;16307;42.896;20.874;2022-09-29T18:59:51;12.77;;;5.93;;
25381;SDS011;16307;42.896;20.874;2022-09-29T19:02:37;16.20;;;6.32;;
25381;SDS011;16307;42.896;20.874;2022-09-29T19:05:24;15.88;;;6.00;;
25381;SDS011;16307;42.896;20.874;2022-09-29T19:08:14;14.90;;;7.63;;
25381;SDS011;16307;42.896;20.874;2022-09-29T19:11:00;19.40;;;7.55;;
25381;SDS011;16307;42.896;20.874;2022-09-29T19:13:49;18.65;;;7.68;;
25381;SDS011;16307;42.896;20.874;2022-09-29T19:16:37;19.05;;;8.57;;
25381;SDS011;16307;42.896;20.874;2022-09-29T19:19:22;18.13;;;8.18;;
25381;SDS011;16307;42.896;20.874;2022-09-29T19:22:09;15.18;;;7.30;;
25381;SDS011;16307;42.896;20.874;2022-09-29T19:24:57;16.80;;;6.80;;
25381;SDS011;16307;42.896;20.874;2022-09-29T19:27:43;17.23;;;6.15;;
25381;SDS011;16307;42.896;20.874;2022-09-29T19:30:31;13.90;;;5.60;;
25381;SDS011;16307;42.896;20.874;2022-09-29T19:33:23;13.52;;;5.72;;
25381;SDS011;16307;42.896;20.874;2022-09-29T19:36:12;12.85;;;5.22;;
25381;SDS011;16307;42.896;20.874;2022-09-29T19:39:00;11.45;;;5.07;;
25381;SDS011;16307;42.896;20.874;2022-09-29T19:41:48;12.15;;;5.30;;
25381;SDS011;16307;42.896;20.874;2022-09-29T19:44:35;18.13;;;9.50;;
25381;SDS011;16307;42.896;20.874;2022-09-29T19:47:22;21.05;;;11.27;;
25381;SDS011;16307;42.896;20.874;2022-09-29T19:50:09;22.25;;;10.95;;
25381;SDS011;16307;42.896;20.874;2022-09-29T19:53:14;22.10;;;8.20;;
25381;SDS011;16307;42.896;20.874;2022-09-29T19:56:01;24.75;;;11.93;;